sensor_id;sensor_type;location;lat;lon;timestamp;P1;durP1;ratioP1;P2;durP2;ratioP2
15553;SDS011;7878;44.632;10.942;2023-03-31T00:00:42;24.73;;;13.87;;
15553;SDS011;7878;44.632;10.942;2023-03-31T00:03:08;19.40;;;13.57;;
15553;SDS011;7878;44.632;10.942;2023-03-31T00:05:37;28.77;;;14.73;;
15553;SDS011;7878;44.632;10.942;2023-03-31T00:08:03;22.53;;;15.27;;
15553;SDS011;7878;44.632;10.942;2023-03-31T00:10:30;21.93;;;13.33;;
15553;SDS011;7878;44.632;10.942;2023-03-31T00:12:58;20.27;;;13.63;;
15553;SDS011;7878;44.632;10.942;2023-03-31T00:15:24;23.10;;;14.73;;
15553;SDS011;7878;44.632;10.942;2023-03-31T00:17:50;29.37;;;15.07;;
15553;SDS011;7878;44.632;10.942;2023-03-31T00:20:15;26.43;;;14.63;;
15553;SDS011;7878;44.632;10.942;2023-03-31T00:22:41;24.57;;;14.53;;
15553;SDS011;7878;44.632;10.942;2023-03-31T00:25:10;23.43;;;14.40;;
15553;SDS011;7878;44.632;10.942;2023-03-31T00:27:43;23.03;;;14.03;;
15553;SDS011;7878;44.632;10.942;2023-03-31T00:30:10;26.67;;;14.40;;
15553;SDS011;7878;44.632;10.942;2023-03-31T00:32:37;25.53;;;14.47;;
15553;SDS011;7878;44.632;10.942;2023-03-31T00:35:03;18.17;;;13.53;;
15553;SDS011;7878;44.632;10.942;2023-03-31T00:37:29;23.00;;;13.40;;
15553;SDS011;7878;44.632;10.942;2023-03-31T00:39:55;18.37;;;13.57;;
15553;SDS011;7878;44.632;10.942;2023-03-31T00:42:21;21.33;;;13.93;;
15553;SDS011;7878;44.632;10.942;2023-03-31T00:48:07;17.47;;;14.03;;
15553;SDS011;7878;44.632;10.942;2023-03-31T00:51:02;20.03;;;13.60;;
15553;SDS011;7878;44.632;10.942;2023-03-31T00:53:29;24.20;;;13.73;;
15553;SDS011;7878;44.632;10.942;2023-03-31T00:55:58;21.43;;;14.40;;
15553;SDS011;7878;44.632;10.942;2023-03-31T00:58:30;22.03;;;13.83;;
15553;SDS011;7878;44.632;10.942;2023-03-31T01:00:57;24.07;;;14.90;;
15553;SDS011;7878;44.632;10.942;2023-03-31T01:03:26;23.10;;;14.53;;
15553;SDS011;7878;44.632;10.942;2023-03-31T01:05:59;24.30;;;14.17;;
15553;SDS011;7878;44.632;10.942;2023-03-31T01:08:30;22.03;;;14.80;;
15553;SDS011;7878;44.632;10.942;2023-03-31T01:10:58;22.03;;;14.70;;
15553;SDS011;7878;44.632;10.942;2023-03-31T01:13:26;23.83;;;15.93;;
15553;SDS011;7878;44.632;10.942;2023-03-31T01:15:54;19.00;;;14.23;;
15553;SDS011;7878;44.632;10.942;2023-03-31T01:18:20;21.50;;;14.67;;
15553;SDS011;7878;44.632;10.942;2023-03-31T01:47:56;27.30;;;17.30;;
15553;SDS011;7878;44.632;10.942;2023-03-31T01:51:01;24.23;;;18.07;;
15553;SDS011;7878;44.632;10.942;2023-03-31T01:56:33;28.17;;;16.47;;
15553;SDS011;7878;44.632;10.942;2023-03-31T02:00:22;30.13;;;17.47;;
15553;SDS011;7878;44.632;10.942;2023-03-31T02:02:36;25.73;;;17.23;;
15553;SDS011;7878;44.632;10.942;2023-03-31T02:05:23;31.83;;;16.67;;
15553;SDS011;7878;44.632;10.942;2023-03-31T02:07:53;26.23;;;17.60;;
15553;SDS011;7878;44.632;10.942;2023-03-31T02:10:19;32.13;;;17.20;;
15553;SDS011;7878;44.632;10.942;2023-03-31T02:12:47;26.53;;;17.53;;
15553;SDS011;7878;44.632;10.942;2023-03-31T02:15:20;21.40;;;16.47;;
15553;SDS011;7878;44.632;10.942;2023-03-31T02:17:50;22.93;;;16.90;;
15553;SDS011;7878;44.632;10.942;2023-03-31T02:20:20;26.17;;;17.27;;
15553;SDS011;7878;44.632;10.942;2023-03-31T02:22:49;21.57;;;16.43;;
15553;SDS011;7878;44.632;10.942;2023-03-31T02:25:20;25.10;;;16.27;;
15553;SDS011;7878;44.632;10.942;2023-03-31T02:28:00;27.77;;;17.70;;
15553;SDS011;7878;44.632;10.942;2023-03-31T02:30:35;24.40;;;16.50;;
15553;SDS011;7878;44.632;10.942;2023-03-31T02:33:10;23.73;;;16.60;;
15553;SDS011;7878;44.632;10.942;2023-03-31T02:35:35;29.57;;;16.93;;
15553;SDS011;7878;44.632;10.942;2023-03-31T02:38:01;28.37;;;16.77;;
15553;SDS011;7878;44.632;10.942;2023-03-31T02:40:30;25.03;;;16.70;;
15553;SDS011;7878;44.632;10.942;2023-03-31T02:42:56;26.50;;;17.53;;
15553;SDS011;7878;44.632;10.942;2023-03-31T02:45:36;27.93;;;18.27;;
15553;SDS011;7878;44.632;10.942;2023-03-31T02:48:06;29.67;;;17.93;;
15553;SDS011;7878;44.632;10.942;2023-03-31T03:09:44;26.13;;;18.23;;
15553;SDS011;7878;44.632;10.942;2023-03-31T03:15:01;25.40;;;18.97;;
15553;SDS011;7878;44.632;10.942;2023-03-31T03:17:29;25.77;;;18.53;;
15553;SDS011;7878;44.632;10.942;2023-03-31T03:19:59;30.50;;;19.20;;
15553;SDS011;7878;44.632;10.942;2023-03-31T03:22:31;27.27;;;19.27;;
15553;SDS011;7878;44.632;10.942;2023-03-31T03:24:57;26.73;;;17.83;;
15553;SDS011;7878;44.632;10.942;2023-03-31T03:27:23;27.13;;;17.70;;
15553;SDS011;7878;44.632;10.942;2023-03-31T03:29:49;31.20;;;19.00;;
15553;SDS011;7878;44.632;10.942;2023-03-31T03:32:15;26.23;;;18.27;;
15553;SDS011;7878;44.632;10.942;2023-03-31T03:34:41;23.20;;;17.23;;
15553;SDS011;7878;44.632;10.942;2023-03-31T03:37:07;29.33;;;17.00;;
15553;SDS011;7878;44.632;10.942;2023-03-31T03:39:32;25.53;;;17.37;;
15553;SDS011;7878;44.632;10.942;2023-03-31T03:41:58;22.10;;;16.80;;
15553;SDS011;7878;44.632;10.942;2023-03-31T03:44:24;35.17;;;18.60;;
15553;SDS011;7878;44.632;10.942;2023-03-31T03:46:49;23.30;;;18.10;;
15553;SDS011;7878;44.632;10.942;2023-03-31T03:49:15;27.23;;;17.37;;
15553;SDS011;7878;44.632;10.942;2023-03-31T03:51:41;29.37;;;17.70;;
15553;SDS011;7878;44.632;10.942;2023-03-31T03:54:06;21.10;;;17.10;;
15553;SDS011;7878;44.632;10.942;2023-03-31T03:56:32;22.93;;;16.40;;
15553;SDS011;7878;44.632;10.942;2023-03-31T03:58:58;23.43;;;15.90;;
15553;SDS011;7878;44.632;10.942;2023-03-31T04:01:23;20.33;;;15.77;;
15553;SDS011;7878;44.632;10.942;2023-03-31T04:03:49;22.40;;;15.30;;
15553;SDS011;7878;44.632;10.942;2023-03-31T04:06:15;20.70;;;15.57;;
15553;SDS011;7878;44.632;10.942;2023-03-31T04:08:40;23.70;;;15.70;;
15553;SDS011;7878;44.632;10.942;2023-03-31T04:11:13;21.17;;;14.87;;
15553;SDS011;7878;44.632;10.942;2023-03-31T04:13:44;26.80;;;15.43;;
15553;SDS011;7878;44.632;10.942;2023-03-31T04:16:10;27.43;;;15.47;;
15553;SDS011;7878;44.632;10.942;2023-03-31T04:18:36;21.80;;;15.10;;
15553;SDS011;7878;44.632;10.942;2023-03-31T04:21:06;24.43;;;15.43;;
15553;SDS011;7878;44.632;10.942;2023-03-31T04:23:36;26.07;;;15.93;;
15553;SDS011;7878;44.632;10.942;2023-03-31T04:26:06;25.17;;;15.47;;
15553;SDS011;7878;44.632;10.942;2023-03-31T04:28:36;19.97;;;14.60;;
15553;SDS011;7878;44.632;10.942;2023-03-31T04:31:03;25.33;;;15.20;;
15553;SDS011;7878;44.632;10.942;2023-03-31T04:33:33;22.70;;;15.23;;
15553;SDS011;7878;44.632;10.942;2023-03-31T04:36:02;22.73;;;15.33;;
15553;SDS011;7878;44.632;10.942;2023-03-31T04:38:31;24.50;;;15.43;;
15553;SDS011;7878;44.632;10.942;2023-03-31T04:41:00;25.17;;;15.87;;
15553;SDS011;7878;44.632;10.942;2023-03-31T04:43:25;25.50;;;16.47;;
15553;SDS011;7878;44.632;10.942;2023-03-31T04:45:51;23.50;;;15.47;;
15553;SDS011;7878;44.632;10.942;2023-03-31T04:48:17;20.80;;;15.13;;
15553;SDS011;7878;44.632;10.942;2023-03-31T04:50:42;26.57;;;15.60;;
15553;SDS011;7878;44.632;10.942;2023-03-31T04:53:10;24.40;;;13.57;;
15553;SDS011;7878;44.632;10.942;2023-03-31T04:55:36;25.97;;;14.80;;
15553;SDS011;7878;44.632;10.942;2023-03-31T04:58:01;23.00;;;14.40;;
15553;SDS011;7878;44.632;10.942;2023-03-31T05:00:27;25.47;;;14.47;;
15553;SDS011;7878;44.632;10.942;2023-03-31T05:02:53;27.97;;;15.20;;
15553;SDS011;7878;44.632;10.942;2023-03-31T05:05:19;27.20;;;16.23;;
15553;SDS011;7878;44.632;10.942;2023-03-31T05:07:45;22.47;;;14.83;;
15553;SDS011;7878;44.632;10.942;2023-03-31T05:10:11;25.90;;;15.47;;
15553;SDS011;7878;44.632;10.942;2023-03-31T05:12:37;26.63;;;14.83;;
15553;SDS011;7878;44.632;10.942;2023-03-31T05:15:04;25.13;;;14.23;;
15553;SDS011;7878;44.632;10.942;2023-03-31T05:17:31;24.07;;;13.70;;
15553;SDS011;7878;44.632;10.942;2023-03-31T05:19:58;23.97;;;13.70;;
15553;SDS011;7878;44.632;10.942;2023-03-31T05:22:24;19.93;;;11.97;;
15553;SDS011;7878;44.632;10.942;2023-03-31T05:24:50;22.60;;;12.20;;
15553;SDS011;7878;44.632;10.942;2023-03-31T05:27:15;23.23;;;12.77;;
15553;SDS011;7878;44.632;10.942;2023-03-31T05:29:41;18.77;;;12.43;;
15553;SDS011;7878;44.632;10.942;2023-03-31T05:32:08;21.17;;;11.10;;
15553;SDS011;7878;44.632;10.942;2023-03-31T05:34:34;19.33;;;11.87;;
15553;SDS011;7878;44.632;10.942;2023-03-31T05:37:00;15.47;;;9.63;;
15553;SDS011;7878;44.632;10.942;2023-03-31T05:39:26;17.80;;;9.57;;
15553;SDS011;7878;44.632;10.942;2023-03-31T05:41:56;43.60;;;10.97;;
15553;SDS011;7878;44.632;10.942;2023-03-31T05:44:25;62.27;;;14.00;;
15553;SDS011;7878;44.632;10.942;2023-03-31T05:46:54;37.17;;;10.73;;
15553;SDS011;7878;44.632;10.942;2023-03-31T05:49:20;36.10;;;11.43;;
15553;SDS011;7878;44.632;10.942;2023-03-31T05:51:46;16.67;;;8.93;;
15553;SDS011;7878;44.632;10.942;2023-03-31T05:54:12;18.53;;;8.90;;
15553;SDS011;7878;44.632;10.942;2023-03-31T05:56:38;20.00;;;8.87;;
15553;SDS011;7878;44.632;10.942;2023-03-31T05:59:03;16.63;;;9.40;;
15553;SDS011;7878;44.632;10.942;2023-03-31T06:01:29;20.03;;;10.07;;
15553;SDS011;7878;44.632;10.942;2023-03-31T06:03:55;14.17;;;8.53;;
15553;SDS011;7878;44.632;10.942;2023-03-31T06:06:21;13.57;;;8.77;;
15553;SDS011;7878;44.632;10.942;2023-03-31T06:08:47;20.10;;;9.57;;
15553;SDS011;7878;44.632;10.942;2023-03-31T06:11:14;17.60;;;9.00;;
15553;SDS011;7878;44.632;10.942;2023-03-31T06:13:43;17.93;;;9.57;;
15553;SDS011;7878;44.632;10.942;2023-03-31T06:16:09;18.67;;;10.10;;
15553;SDS011;7878;44.632;10.942;2023-03-31T06:18:36;20.17;;;8.90;;
15553;SDS011;7878;44.632;10.942;2023-03-31T06:21:02;21.70;;;9.50;;
15553;SDS011;7878;44.632;10.942;2023-03-31T06:23:28;23.33;;;9.20;;
15553;SDS011;7878;44.632;10.942;2023-03-31T06:26:00;24.13;;;8.07;;
15553;SDS011;7878;44.632;10.942;2023-03-31T06:28:27;21.87;;;7.60;;
15553;SDS011;7878;44.632;10.942;2023-03-31T06:31:00;18.20;;;7.93;;
15553;SDS011;7878;44.632;10.942;2023-03-31T06:33:30;15.83;;;7.90;;
15553;SDS011;7878;44.632;10.942;2023-03-31T06:35:56;20.40;;;7.53;;
15553;SDS011;7878;44.632;10.942;2023-03-31T06:38:24;17.70;;;7.63;;
15553;SDS011;7878;44.632;10.942;2023-03-31T06:40:50;20.30;;;8.07;;
15553;SDS011;7878;44.632;10.942;2023-03-31T06:43:15;15.27;;;7.50;;
15553;SDS011;7878;44.632;10.942;2023-03-31T06:45:41;13.30;;;8.10;;
15553;SDS011;7878;44.632;10.942;2023-03-31T06:48:07;12.87;;;7.20;;
15553;SDS011;7878;44.632;10.942;2023-03-31T06:50:32;21.73;;;8.73;;
15553;SDS011;7878;44.632;10.942;2023-03-31T06:53:01;14.87;;;8.70;;
15553;SDS011;7878;44.632;10.942;2023-03-31T06:55:26;18.87;;;8.67;;
15553;SDS011;7878;44.632;10.942;2023-03-31T06:57:52;17.17;;;8.87;;
15553;SDS011;7878;44.632;10.942;2023-03-31T07:00:18;29.77;;;9.30;;
15553;SDS011;7878;44.632;10.942;2023-03-31T07:02:43;15.70;;;8.47;;
15553;SDS011;7878;44.632;10.942;2023-03-31T07:05:09;16.30;;;8.83;;
15553;SDS011;7878;44.632;10.942;2023-03-31T07:07:35;18.20;;;8.90;;
15553;SDS011;7878;44.632;10.942;2023-03-31T07:10:00;16.13;;;7.67;;
15553;SDS011;7878;44.632;10.942;2023-03-31T07:12:26;23.53;;;8.23;;
15553;SDS011;7878;44.632;10.942;2023-03-31T07:14:52;15.90;;;8.73;;
15553;SDS011;7878;44.632;10.942;2023-03-31T07:17:17;18.00;;;7.37;;
15553;SDS011;7878;44.632;10.942;2023-03-31T07:19:43;11.47;;;6.57;;
15553;SDS011;7878;44.632;10.942;2023-03-31T07:22:12;17.03;;;6.10;;
15553;SDS011;7878;44.632;10.942;2023-03-31T07:24:38;14.93;;;5.73;;
15553;SDS011;7878;44.632;10.942;2023-03-31T07:27:04;496.67;;;47.27;;
15553;SDS011;7878;44.632;10.942;2023-03-31T07:29:30;15.77;;;6.13;;
15553;SDS011;7878;44.632;10.942;2023-03-31T07:31:56;17.77;;;9.20;;
15553;SDS011;7878;44.632;10.942;2023-03-31T07:34:21;17.00;;;6.07;;
15553;SDS011;7878;44.632;10.942;2023-03-31T07:36:47;18.10;;;6.23;;
15553;SDS011;7878;44.632;10.942;2023-03-31T07:39:13;15.47;;;6.67;;
15553;SDS011;7878;44.632;10.942;2023-03-31T07:41:38;15.53;;;6.23;;
15553;SDS011;7878;44.632;10.942;2023-03-31T07:44:04;22.67;;;6.77;;
15553;SDS011;7878;44.632;10.942;2023-03-31T07:46:30;18.27;;;5.97;;
15553;SDS011;7878;44.632;10.942;2023-03-31T07:48:56;19.13;;;6.13;;
15553;SDS011;7878;44.632;10.942;2023-03-31T07:51:23;17.20;;;5.97;;
15553;SDS011;7878;44.632;10.942;2023-03-31T07:53:50;9.80;;;6.03;;
15553;SDS011;7878;44.632;10.942;2023-03-31T07:56:17;14.20;;;6.47;;
15553;SDS011;7878;44.632;10.942;2023-03-31T07:58:47;18.63;;;6.63;;
15553;SDS011;7878;44.632;10.942;2023-03-31T08:01:16;13.40;;;5.43;;
15553;SDS011;7878;44.632;10.942;2023-03-31T08:03:43;18.10;;;5.43;;
15553;SDS011;7878;44.632;10.942;2023-03-31T08:06:10;15.13;;;6.23;;
15553;SDS011;7878;44.632;10.942;2023-03-31T08:08:36;14.43;;;5.30;;
15553;SDS011;7878;44.632;10.942;2023-03-31T08:11:07;10.10;;;5.33;;
15553;SDS011;7878;44.632;10.942;2023-03-31T08:13:33;10.93;;;5.27;;
15553;SDS011;7878;44.632;10.942;2023-03-31T08:15:59;17.40;;;6.00;;
15553;SDS011;7878;44.632;10.942;2023-03-31T08:18:25;15.43;;;6.57;;
15553;SDS011;7878;44.632;10.942;2023-03-31T08:20:51;14.07;;;7.23;;
15553;SDS011;7878;44.632;10.942;2023-03-31T08:23:17;14.83;;;7.97;;
15553;SDS011;7878;44.632;10.942;2023-03-31T08:25:42;15.67;;;7.43;;
15553;SDS011;7878;44.632;10.942;2023-03-31T08:28:08;18.73;;;6.53;;
15553;SDS011;7878;44.632;10.942;2023-03-31T08:30:38;15.43;;;6.23;;
15553;SDS011;7878;44.632;10.942;2023-03-31T08:33:05;9.37;;;6.13;;
15553;SDS011;7878;44.632;10.942;2023-03-31T08:35:32;16.47;;;6.67;;
15553;SDS011;7878;44.632;10.942;2023-03-31T08:38:01;11.30;;;7.50;;
15553;SDS011;7878;44.632;10.942;2023-03-31T08:40:27;18.90;;;8.83;;
15553;SDS011;7878;44.632;10.942;2023-03-31T08:43:17;20.60;;;9.60;;
15553;SDS011;7878;44.632;10.942;2023-03-31T08:45:50;23.57;;;9.87;;
15553;SDS011;7878;44.632;10.942;2023-03-31T08:48:24;18.90;;;8.90;;
15553;SDS011;7878;44.632;10.942;2023-03-31T08:50:53;20.27;;;9.67;;
15553;SDS011;7878;44.632;10.942;2023-03-31T08:53:33;16.08;;;10.13;;
15553;SDS011;7878;44.632;10.942;2023-03-31T08:56:03;19.07;;;10.57;;
15553;SDS011;7878;44.632;10.942;2023-03-31T08:58:43;22.48;;;10.73;;
15553;SDS011;7878;44.632;10.942;2023-03-31T09:04:23;26.97;;;12.23;;
15553;SDS011;7878;44.632;10.942;2023-03-31T09:12:13;17.50;;;9.33;;
15553;SDS011;7878;44.632;10.942;2023-03-31T09:17:26;19.27;;;10.57;;
15553;SDS011;7878;44.632;10.942;2023-03-31T09:25:44;23.88;;;12.35;;
15553;SDS011;7878;44.632;10.942;2023-03-31T09:28:13;29.52;;;12.32;;
15553;SDS011;7878;44.632;10.942;2023-03-31T09:30:47;21.65;;;11.65;;
15553;SDS011;7878;44.632;10.942;2023-03-31T09:33:27;16.50;;;11.48;;
15553;SDS011;7878;44.632;10.942;2023-03-31T09:35:58;22.52;;;11.15;;
15553;SDS011;7878;44.632;10.942;2023-03-31T09:38:24;17.67;;;10.20;;
15553;SDS011;7878;44.632;10.942;2023-03-31T09:40:58;19.08;;;10.05;;
15553;SDS011;7878;44.632;10.942;2023-03-31T09:43:27;23.38;;;10.90;;
15553;SDS011;7878;44.632;10.942;2023-03-31T09:45:54;22.17;;;12.50;;
15553;SDS011;7878;44.632;10.942;2023-03-31T09:48:25;19.30;;;11.30;;
15553;SDS011;7878;44.632;10.942;2023-03-31T09:50:59;19.23;;;10.77;;
15553;SDS011;7878;44.632;10.942;2023-03-31T09:53:37;19.30;;;12.23;;
15553;SDS011;7878;44.632;10.942;2023-03-31T09:56:10;17.80;;;10.13;;
15553;SDS011;7878;44.632;10.942;2023-03-31T09:58:43;15.32;;;11.10;;
15553;SDS011;7878;44.632;10.942;2023-03-31T10:01:11;18.73;;;10.90;;
15553;SDS011;7878;44.632;10.942;2023-03-31T10:03:46;19.10;;;11.32;;
15553;SDS011;7878;44.632;10.942;2023-03-31T10:06:15;18.77;;;11.68;;
15553;SDS011;7878;44.632;10.942;2023-03-31T10:08:46;20.83;;;12.20;;
15553;SDS011;7878;44.632;10.942;2023-03-31T10:11:16;17.95;;;11.68;;
15553;SDS011;7878;44.632;10.942;2023-03-31T10:16:12;16.30;;;10.35;;
15553;SDS011;7878;44.632;10.942;2023-03-31T10:18:40;19.42;;;10.43;;
15553;SDS011;7878;44.632;10.942;2023-03-31T10:23:59;20.88;;;8.73;;
15553;SDS011;7878;44.632;10.942;2023-03-31T10:26:26;19.40;;;8.60;;
15553;SDS011;7878;44.632;10.942;2023-03-31T10:28:53;14.00;;;8.45;;
15553;SDS011;7878;44.632;10.942;2023-03-31T10:31:40;14.50;;;7.47;;
15553;SDS011;7878;44.632;10.942;2023-03-31T10:34:07;17.30;;;7.55;;
15553;SDS011;7878;44.632;10.942;2023-03-31T10:36:36;17.15;;;7.57;;
15553;SDS011;7878;44.632;10.942;2023-03-31T10:39:06;13.77;;;7.18;;
15553;SDS011;7878;44.632;10.942;2023-03-31T10:41:33;13.35;;;6.85;;
15553;SDS011;7878;44.632;10.942;2023-03-31T10:44:00;15.48;;;7.28;;
15553;SDS011;7878;44.632;10.942;2023-03-31T10:51:47;14.52;;;7.65;;
15553;SDS011;7878;44.632;10.942;2023-03-31T10:54:16;11.77;;;6.78;;
15553;SDS011;7878;44.632;10.942;2023-03-31T10:56:43;9.25;;;5.47;;
15553;SDS011;7878;44.632;10.942;2023-03-31T10:59:23;11.73;;;6.05;;
15553;SDS011;7878;44.632;10.942;2023-03-31T11:10:43;7.07;;;4.03;;
15553;SDS011;7878;44.632;10.942;2023-03-31T11:29:27;7.63;;;3.72;;
15553;SDS011;7878;44.632;10.942;2023-03-31T11:31:51;7.65;;;3.42;;
15553;SDS011;7878;44.632;10.942;2023-03-31T11:42:33;8.52;;;3.50;;
15553;SDS011;7878;44.632;10.942;2023-03-31T11:45:32;6.85;;;3.45;;
15553;SDS011;7878;44.632;10.942;2023-03-31T11:47:59;8.80;;;2.95;;
15553;SDS011;7878;44.632;10.942;2023-03-31T11:50:29;11.98;;;3.15;;
15553;SDS011;7878;44.632;10.942;2023-03-31T11:53:04;7.43;;;3.20;;
15553;SDS011;7878;44.632;10.942;2023-03-31T11:55:41;5.90;;;2.83;;
15553;SDS011;7878;44.632;10.942;2023-03-31T11:58:15;10.90;;;3.22;;
15553;SDS011;7878;44.632;10.942;2023-03-31T12:00:52;13.75;;;2.85;;
15553;SDS011;7878;44.632;10.942;2023-03-31T12:06:03;5.68;;;2.65;;
15553;SDS011;7878;44.632;10.942;2023-03-31T12:08:45;8.25;;;2.53;;
15553;SDS011;7878;44.632;10.942;2023-03-31T12:11:12;9.23;;;3.03;;
15553;SDS011;7878;44.632;10.942;2023-03-31T12:16:38;5.43;;;2.15;;
15553;SDS011;7878;44.632;10.942;2023-03-31T12:22:04;8.02;;;2.53;;
15553;SDS011;7878;44.632;10.942;2023-03-31T12:24:32;11.23;;;3.38;;
15553;SDS011;7878;44.632;10.942;2023-03-31T12:27:12;10.73;;;2.60;;
15553;SDS011;7878;44.632;10.942;2023-03-31T12:29:43;8.13;;;2.80;;
15553;SDS011;7878;44.632;10.942;2023-03-31T12:32:23;8.23;;;2.53;;
15553;SDS011;7878;44.632;10.942;2023-03-31T12:46:14;9.73;;;2.85;;
15553;SDS011;7878;44.632;10.942;2023-03-31T12:49:15;9.73;;;2.45;;
15553;SDS011;7878;44.632;10.942;2023-03-31T12:52:04;8.43;;;2.70;;
15553;SDS011;7878;44.632;10.942;2023-03-31T12:57:20;10.88;;;3.13;;
15553;SDS011;7878;44.632;10.942;2023-03-31T13:02:34;7.88;;;2.75;;
15553;SDS011;7878;44.632;10.942;2023-03-31T13:05:39;6.53;;;3.05;;
15553;SDS011;7878;44.632;10.942;2023-03-31T13:08:02;9.05;;;3.30;;
15553;SDS011;7878;44.632;10.942;2023-03-31T13:10:31;11.45;;;2.97;;
15553;SDS011;7878;44.632;10.942;2023-03-31T13:15:26;8.20;;;2.70;;
15553;SDS011;7878;44.632;10.942;2023-03-31T13:17:58;9.77;;;2.92;;
15553;SDS011;7878;44.632;10.942;2023-03-31T13:20:40;7.70;;;2.22;;
15553;SDS011;7878;44.632;10.942;2023-03-31T13:25:47;7.72;;;2.50;;
15553;SDS011;7878;44.632;10.942;2023-03-31T13:55:43;12.32;;;3.08;;
15553;SDS011;7878;44.632;10.942;2023-03-31T14:07:14;12.85;;;3.90;;
15553;SDS011;7878;44.632;10.942;2023-03-31T14:09:44;10.00;;;2.78;;
15553;SDS011;7878;44.632;10.942;2023-03-31T14:12:29;8.85;;;2.88;;
15553;SDS011;7878;44.632;10.942;2023-03-31T14:14:58;12.18;;;3.25;;
15553;SDS011;7878;44.632;10.942;2023-03-31T14:17:28;9.32;;;2.95;;
15553;SDS011;7878;44.632;10.942;2023-03-31T14:28:49;12.82;;;2.88;;
15553;SDS011;7878;44.632;10.942;2023-03-31T14:31:16;8.02;;;2.83;;
15553;SDS011;7878;44.632;10.942;2023-03-31T14:39:21;9.38;;;2.78;;
15553;SDS011;7878;44.632;10.942;2023-03-31T14:41:52;14.10;;;3.22;;
15553;SDS011;7878;44.632;10.942;2023-03-31T14:44:20;8.65;;;3.13;;
15553;SDS011;7878;44.632;10.942;2023-03-31T14:46:47;10.45;;;2.95;;
15553;SDS011;7878;44.632;10.942;2023-03-31T14:51:46;10.23;;;3.10;;
15553;SDS011;7878;44.632;10.942;2023-03-31T14:54:16;8.40;;;2.83;;
15553;SDS011;7878;44.632;10.942;2023-03-31T14:56:43;16.73;;;4.03;;
15553;SDS011;7878;44.632;10.942;2023-03-31T14:59:12;9.57;;;2.97;;
15553;SDS011;7878;44.632;10.942;2023-03-31T15:01:44;11.38;;;3.08;;
15553;SDS011;7878;44.632;10.942;2023-03-31T15:04:13;9.52;;;3.00;;
15553;SDS011;7878;44.632;10.942;2023-03-31T15:06:43;8.77;;;2.65;;
15553;SDS011;7878;44.632;10.942;2023-03-31T15:09:13;10.73;;;3.22;;
15553;SDS011;7878;44.632;10.942;2023-03-31T15:12:24;12.35;;;3.17;;
15553;SDS011;7878;44.632;10.942;2023-03-31T15:14:45;7.97;;;2.85;;
15553;SDS011;7878;44.632;10.942;2023-03-31T15:17:37;7.85;;;3.10;;
15553;SDS011;7878;44.632;10.942;2023-03-31T15:20:24;9.80;;;3.03;;
15553;SDS011;7878;44.632;10.942;2023-03-31T15:22:56;15.82;;;3.88;;
15553;SDS011;7878;44.632;10.942;2023-03-31T15:25:28;9.95;;;3.33;;
15553;SDS011;7878;44.632;10.942;2023-03-31T15:28:03;13.25;;;3.10;;
15553;SDS011;7878;44.632;10.942;2023-03-31T15:30:31;7.07;;;2.53;;
15553;SDS011;7878;44.632;10.942;2023-03-31T15:32:57;13.27;;;3.50;;
15553;SDS011;7878;44.632;10.942;2023-03-31T15:35:26;10.25;;;3.63;;
15553;SDS011;7878;44.632;10.942;2023-03-31T15:37:55;6.00;;;2.65;;
15553;SDS011;7878;44.632;10.942;2023-03-31T15:40:26;11.25;;;3.13;;
15553;SDS011;7878;44.632;10.942;2023-03-31T15:42:56;9.85;;;3.13;;
15553;SDS011;7878;44.632;10.942;2023-03-31T15:47:55;8.52;;;2.75;;
15553;SDS011;7878;44.632;10.942;2023-03-31T15:50:25;9.85;;;2.88;;
15553;SDS011;7878;44.632;10.942;2023-03-31T15:52:54;9.00;;;3.33;;
15553;SDS011;7878;44.632;10.942;2023-03-31T15:57:49;10.05;;;3.05;;
15553;SDS011;7878;44.632;10.942;2023-03-31T16:05:55;16.05;;;6.07;;
15553;SDS011;7878;44.632;10.942;2023-03-31T16:11:16;8.77;;;3.08;;
15553;SDS011;7878;44.632;10.942;2023-03-31T16:13:49;11.23;;;2.97;;
15553;SDS011;7878;44.632;10.942;2023-03-31T16:16:19;16.80;;;3.38;;
15553;SDS011;7878;44.632;10.942;2023-03-31T16:18:51;7.93;;;3.03;;
15553;SDS011;7878;44.632;10.942;2023-03-31T16:21:27;10.15;;;3.95;;
15553;SDS011;7878;44.632;10.942;2023-03-31T16:24:03;9.10;;;2.65;;
15553;SDS011;7878;44.632;10.942;2023-03-31T16:26:30;12.02;;;3.22;;
15553;SDS011;7878;44.632;10.942;2023-03-31T16:28:56;12.00;;;3.17;;
15553;SDS011;7878;44.632;10.942;2023-03-31T16:31:42;11.32;;;4.63;;
15553;SDS011;7878;44.632;10.942;2023-03-31T16:34:09;12.52;;;3.88;;
15553;SDS011;7878;44.632;10.942;2023-03-31T16:36:35;7.78;;;3.47;;
15553;SDS011;7878;44.632;10.942;2023-03-31T16:39:01;9.85;;;2.92;;
15553;SDS011;7878;44.632;10.942;2023-03-31T16:41:32;17.48;;;3.22;;
15553;SDS011;7878;44.632;10.942;2023-03-31T16:43:58;16.98;;;3.08;;
15553;SDS011;7878;44.632;10.942;2023-03-31T16:46:24;12.90;;;3.55;;
15553;SDS011;7878;44.632;10.942;2023-03-31T16:48:51;10.40;;;3.53;;
15553;SDS011;7878;44.632;10.942;2023-03-31T16:51:17;7.35;;;2.95;;
15553;SDS011;7878;44.632;10.942;2023-03-31T16:53:43;9.93;;;3.40;;
15553;SDS011;7878;44.632;10.942;2023-03-31T16:56:11;10.70;;;3.47;;
15553;SDS011;7878;44.632;10.942;2023-03-31T16:58:38;13.77;;;3.20;;
15553;SDS011;7878;44.632;10.942;2023-03-31T17:01:04;12.15;;;3.42;;
15553;SDS011;7878;44.632;10.942;2023-03-31T17:03:32;13.70;;;3.70;;
15553;SDS011;7878;44.632;10.942;2023-03-31T17:06:04;13.73;;;3.60;;
15553;SDS011;7878;44.632;10.942;2023-03-31T17:08:31;13.95;;;3.35;;
15553;SDS011;7878;44.632;10.942;2023-03-31T17:11:05;18.73;;;3.38;;
15553;SDS011;7878;44.632;10.942;2023-03-31T17:13:34;8.40;;;3.22;;
15553;SDS011;7878;44.632;10.942;2023-03-31T17:16:00;8.65;;;3.10;;
15553;SDS011;7878;44.632;10.942;2023-03-31T17:18:26;12.88;;;3.72;;
15553;SDS011;7878;44.632;10.942;2023-03-31T17:20:52;9.07;;;3.28;;
15553;SDS011;7878;44.632;10.942;2023-03-31T17:23:18;10.93;;;3.63;;
15553;SDS011;7878;44.632;10.942;2023-03-31T17:25:51;11.32;;;3.47;;
15553;SDS011;7878;44.632;10.942;2023-03-31T17:28:17;15.63;;;3.72;;
15553;SDS011;7878;44.632;10.942;2023-03-31T17:30:43;8.98;;;3.60;;
15553;SDS011;7878;44.632;10.942;2023-03-31T17:33:12;15.38;;;4.00;;
15553;SDS011;7878;44.632;10.942;2023-03-31T17:35:41;14.80;;;4.43;;
15553;SDS011;7878;44.632;10.942;2023-03-31T17:38:08;7.88;;;4.07;;
15553;SDS011;7878;44.632;10.942;2023-03-31T17:40:38;13.70;;;4.28;;
15553;SDS011;7878;44.632;10.942;2023-03-31T17:43:04;9.95;;;4.18;;
15553;SDS011;7878;44.632;10.942;2023-03-31T17:45:31;13.48;;;5.35;;
15553;SDS011;7878;44.632;10.942;2023-03-31T17:47:58;11.23;;;5.47;;
15553;SDS011;7878;44.632;10.942;2023-03-31T17:50:24;18.42;;;5.57;;
15553;SDS011;7878;44.632;10.942;2023-03-31T17:52:51;15.40;;;5.78;;
15553;SDS011;7878;44.632;10.942;2023-03-31T17:55:17;16.75;;;6.70;;
15553;SDS011;7878;44.632;10.942;2023-03-31T17:57:43;16.58;;;6.93;;
15553;SDS011;7878;44.632;10.942;2023-03-31T18:00:10;15.70;;;6.70;;
15553;SDS011;7878;44.632;10.942;2023-03-31T18:02:39;14.00;;;7.05;;
15553;SDS011;7878;44.632;10.942;2023-03-31T18:05:06;19.10;;;8.27;;
15553;SDS011;7878;44.632;10.942;2023-03-31T18:07:33;20.88;;;8.80;;
15553;SDS011;7878;44.632;10.942;2023-03-31T18:10:00;13.90;;;7.85;;
15553;SDS011;7878;44.632;10.942;2023-03-31T18:12:26;30.85;;;9.13;;
15553;SDS011;7878;44.632;10.942;2023-03-31T18:14:53;20.30;;;9.48;;
15553;SDS011;7878;44.632;10.942;2023-03-31T18:17:19;14.95;;;8.75;;